createdAt,value
2023-03-30T00:01:30.253Z,-7.60
2023-03-30T00:03:59.145Z,-7.60
2023-03-30T00:06:29.331Z,-7.70
2023-03-30T00:08:58.631Z,-7.70
2023-03-30T00:11:28.747Z,-7.70
2023-03-30T00:13:57.340Z,-7.80
2023-03-30T00:16:26.115Z,-7.80
2023-03-30T00:18:54.421Z,-7.80
2023-03-30T00:21:22.853Z,-7.80
2023-03-30T00:23:52.644Z,-7.80
2023-03-30T00:26:21.492Z,-7.80
2023-03-30T00:28:49.697Z,-7.90
2023-03-30T00:31:18.128Z,-7.90
2023-03-30T00:33:47.928Z,-8.00
2023-03-30T00:36:17.003Z,-8.00
2023-03-30T00:38:48.518Z,-8.00
2023-03-30T00:41:18.563Z,-8.00
2023-03-30T00:43:57.845Z,-8.00
2023-03-30T00:46:26.151Z,-8.10
2023-03-30T00:48:57.956Z,-8.10
2023-03-30T00:51:28.280Z,-8.20
2023-03-30T00:54:01.113Z,-8.20
2023-03-30T00:56:32.568Z,-8.30
2023-03-30T00:59:02.980Z,-8.30
2023-03-30T01:01:39.151Z,-8.30
2023-03-30T01:04:09.844Z,-8.40
2023-03-30T01:06:40.889Z,-8.50
2023-03-30T01:09:09.609Z,-8.60
2023-03-30T01:11:39.799Z,-8.70
2023-03-30T01:14:10.366Z,-8.70
2023-03-30T01:16:45.304Z,-8.80
2023-03-30T01:19:44.031Z,-8.90
2023-03-30T01:22:45.739Z,-9.00
2023-03-30T01:25:43.192Z,-9.10
2023-03-30T01:28:32.188Z,-9.10
2023-03-30T01:31:26.143Z,-9.10
2023-03-30T01:34:22.716Z,-9.20
2023-03-30T01:37:18.524Z,-9.20
2023-03-30T01:39:56.272Z,-9.30
2023-03-30T01:42:33.498Z,-9.30
2023-03-30T01:45:08.840Z,-9.30
2023-03-30T01:47:41.036Z,-9.40
2023-03-30T01:50:14.361Z,-9.40
2023-03-30T01:52:53.998Z,-9.50
2023-03-30T01:55:29.607Z,-9.60
2023-03-30T01:58:03.395Z,-9.50
2023-03-30T02:00:32.657Z,-9.60
2023-03-30T02:03:06.921Z,-9.60
2023-03-30T02:05:37.182Z,-9.60
2023-03-30T02:08:09.642Z,-9.70
2023-03-30T02:10:42.258Z,-9.70
2023-03-30T02:13:11.342Z,-9.70
2023-03-30T02:15:43.701Z,-9.70
2023-03-30T02:18:13.192Z,-9.70
2023-03-30T02:20:42.671Z,-9.70
2023-03-30T02:23:11.536Z,-9.70
2023-03-30T02:25:41.571Z,-9.70
2023-03-30T02:28:10.865Z,-9.70
2023-03-30T02:30:44.937Z,-9.70
2023-03-30T02:33:25.163Z,-9.70
2023-03-30T02:36:26.193Z,-9.60
2023-03-30T02:39:18.314Z,-9.60
2023-03-30T02:42:13.295Z,-9.50
2023-03-30T02:44:46.498Z,-9.40
2023-03-30T02:47:18.595Z,-9.20
2023-03-30T02:49:58.712Z,-9.10
2023-03-30T02:52:43.149Z,-9.10
2023-03-30T02:55:17.827Z,-9.00
2023-03-30T02:57:56.206Z,-9.10
2023-03-30T03:00:29.455Z,-9.10
2023-03-30T03:03:06.076Z,-9.10
2023-03-30T03:05:35.603Z,-9.20
2023-03-30T03:08:03.849Z,-9.20
2023-03-30T03:10:36.706Z,-9.20
2023-03-30T03:13:08.366Z,-9.10
2023-03-30T03:15:38.489Z,-9.10
2023-03-30T03:18:07.344Z,-9.00
2023-03-30T03:20:35.542Z,-8.80
2023-03-30T03:23:03.786Z,-8.80
2023-03-30T03:25:32.469Z,-8.70
2023-03-30T03:28:00.684Z,-8.70
2023-03-30T03:30:30.776Z,-8.70
2023-03-30T03:32:59.656Z,-8.60
2023-03-30T03:35:30.022Z,-8.60
2023-03-30T03:37:58.568Z,-8.60
2023-03-30T03:40:26.985Z,-8.50
2023-03-30T03:42:55.377Z,-8.30
2023-03-30T03:45:23.632Z,-8.10
2023-03-30T03:47:53.508Z,-7.90
2023-03-30T03:50:22.207Z,-7.80
2023-03-30T03:52:50.650Z,-7.80
2023-03-30T03:55:19.678Z,-7.90
2023-03-30T03:57:48.194Z,-7.90
2023-03-30T04:00:18.156Z,-7.80
2023-03-30T04:02:46.605Z,-7.70
2023-03-30T04:05:16.806Z,-7.70
2023-03-30T04:07:46.715Z,-7.70
2023-03-30T04:10:16.067Z,-7.80
2023-03-30T04:12:44.316Z,-7.80
2023-03-30T04:15:12.883Z,-7.80
2023-03-30T04:17:41.567Z,-7.70
2023-03-30T04:20:12.285Z,-7.60
2023-03-30T04:22:42.970Z,-7.60
2023-03-30T04:25:15.084Z,-7.50
2023-03-30T04:27:44.104Z,-7.50
2023-03-30T04:30:13.911Z,-7.40
2023-03-30T04:32:42.194Z,-7.30
2023-03-30T04:35:11.202Z,-7.30
2023-03-30T04:37:42.218Z,-7.20
2023-03-30T04:40:13.364Z,-7.10
2023-03-30T04:42:41.531Z,-7.10
2023-03-30T04:45:11.130Z,-7.10
2023-03-30T04:47:40.406Z,-7.00
2023-03-30T04:50:09.366Z,-6.90
2023-03-30T04:52:37.544Z,-6.80
2023-03-30T04:55:07.242Z,-6.70
2023-03-30T04:57:36.947Z,-6.60
2023-03-30T05:00:09.491Z,-6.50
2023-03-30T05:02:38.113Z,-6.40
2023-03-30T05:05:07.414Z,-6.30
2023-03-30T05:07:36.268Z,-6.20
2023-03-30T05:10:04.557Z,-6.10
2023-03-30T05:12:32.753Z,-6.00
2023-03-30T05:15:02.633Z,-5.90
2023-03-30T05:17:33.319Z,-5.70
2023-03-30T05:20:02.225Z,-5.60
2023-03-30T05:22:30.932Z,-5.50
2023-03-30T05:24:59.107Z,-5.40
2023-03-30T05:27:27.531Z,-5.30
2023-03-30T05:29:55.879Z,-5.20
2023-03-30T05:32:25.656Z,-5.00
2023-03-30T05:34:53.768Z,-4.90
2023-03-30T05:37:22.064Z,-4.90
2023-03-30T05:39:50.309Z,-4.90
2023-03-30T05:42:18.648Z,-4.80
2023-03-30T05:44:47.036Z,-4.60
2023-03-30T05:47:16.522Z,-4.70
2023-03-30T05:49:46.629Z,-4.60
2023-03-30T05:52:15.290Z,-4.60
2023-03-30T05:54:43.486Z,-4.50
2023-03-30T05:57:12.094Z,-4.30
2023-03-30T05:59:40.383Z,-4.10
2023-03-30T06:02:10.808Z,-3.90
2023-03-30T06:04:39.336Z,-3.70
2023-03-30T06:07:09.344Z,-3.60
2023-03-30T06:09:38.575Z,-3.50
2023-03-30T06:12:07.226Z,-3.40
2023-03-30T06:14:35.448Z,-3.20
2023-03-30T06:17:03.717Z,-3.00
2023-03-30T06:19:32.076Z,-2.90
2023-03-30T06:22:00.759Z,-3.00
2023-03-30T06:24:30.935Z,-3.00
2023-03-30T06:27:01.822Z,-2.90
2023-03-30T06:29:30.103Z,-2.70
2023-03-30T06:31:59.080Z,-2.60
2023-03-30T06:34:27.940Z,-2.40
2023-03-30T06:36:56.341Z,-2.30
2023-03-30T06:39:25.396Z,-2.20
2023-03-30T06:41:55.282Z,-2.20
2023-03-30T06:44:23.799Z,-1.90
2023-03-30T06:46:51.994Z,-1.80
2023-03-30T06:49:20.943Z,-1.60
2023-03-30T06:51:49.174Z,-1.50
2023-03-30T06:54:20.233Z,-1.50
2023-03-30T06:56:49.957Z,-1.40
2023-03-30T06:59:19.544Z,-1.40
2023-03-30T07:01:47.804Z,-1.20
2023-03-30T07:04:16.873Z,-1.20
2023-03-30T07:06:45.139Z,-1.30
2023-03-30T07:09:13.916Z,-1.40
2023-03-30T07:11:42.267Z,-1.30
2023-03-30T07:14:12.644Z,-1.10
2023-03-30T07:16:42.347Z,-0.90
2023-03-30T07:19:10.880Z,-0.80
2023-03-30T07:21:39.119Z,-0.60
2023-03-30T07:24:08.312Z,-0.50
2023-03-30T07:26:37.303Z,-0.40
2023-03-30T07:29:06.237Z,-0.40
2023-03-30T07:31:34.880Z,-0.30
2023-03-30T07:34:04.773Z,-0.10
2023-03-30T07:36:33.155Z,-0.10
2023-03-30T07:39:01.387Z,0.10
2023-03-30T07:41:29.825Z,0.40
2023-03-30T07:43:58.141Z,0.70
2023-03-30T07:46:26.592Z,0.70
2023-03-30T07:48:55.116Z,0.40
2023-03-30T07:51:27.332Z,0.00
2023-03-30T07:53:56.941Z,0.10
2023-03-30T07:56:25.242Z,0.20
2023-03-30T07:58:53.592Z,0.60
2023-03-30T08:01:22.455Z,1.10
2023-03-30T08:03:50.909Z,1.70
2023-03-30T08:06:19.127Z,1.80
2023-03-30T08:08:48.980Z,2.00
2023-03-30T08:11:17.164Z,2.30
2023-03-30T08:13:46.038Z,2.40
2023-03-30T08:16:15.153Z,2.40
2023-03-30T08:18:43.375Z,2.60
2023-03-30T08:21:12.290Z,2.20
2023-03-30T08:23:40.885Z,2.30
2023-03-30T08:26:10.389Z,2.30
2023-03-30T08:28:39.288Z,2.40
2023-03-30T08:31:10.857Z,2.20
2023-03-30T08:33:39.543Z,2.60
2023-03-30T08:36:08.090Z,2.80
2023-03-30T08:38:36.975Z,2.70
2023-03-30T08:41:38.974Z,2.70
2023-03-30T08:44:16.487Z,2.70
2023-03-30T08:46:47.596Z,2.90
2023-03-30T08:49:20.570Z,3.40
2023-03-30T08:51:53.162Z,3.70
2023-03-30T08:54:23.509Z,4.20
2023-03-30T08:57:01.882Z,4.50
2023-03-30T08:59:38.064Z,4.10
2023-03-30T09:02:18.290Z,3.90
2023-03-30T09:04:58.468Z,3.90
2023-03-30T09:07:29.743Z,3.30
2023-03-30T09:09:59.119Z,3.00
2023-03-30T09:12:39.654Z,2.70
2023-03-30T09:15:13.947Z,2.60
2023-03-30T09:17:46.939Z,2.50
2023-03-30T09:20:20.667Z,3.10
2023-03-30T09:22:49.853Z,3.00
2023-03-30T09:25:21.571Z,2.90
2023-03-30T09:28:00.346Z,3.30
2023-03-30T09:30:36.440Z,3.40
2023-03-30T09:33:13.560Z,3.60
2023-03-30T09:35:44.844Z,4.10
2023-03-30T09:38:14.556Z,4.60
2023-03-30T09:40:54.668Z,4.40
2023-03-30T09:43:34.399Z,3.70
2023-03-30T09:46:06.682Z,3.60
2023-03-30T09:48:42.421Z,3.50
2023-03-30T09:51:22.912Z,3.40
2023-03-30T09:53:54.535Z,3.60
2023-03-30T09:56:29.475Z,3.60
2023-03-30T09:58:59.680Z,3.60
2023-03-30T10:01:38.650Z,3.60
2023-03-30T10:04:11.048Z,3.40
2023-03-30T10:06:46.328Z,3.60
2023-03-30T10:09:15.397Z,3.80
2023-03-30T10:11:45.443Z,3.90
2023-03-30T10:14:30.576Z,4.20
2023-03-30T10:17:00.525Z,4.40
2023-03-30T10:19:29.791Z,4.50
2023-03-30T10:22:00.173Z,4.50
2023-03-30T10:24:31.597Z,4.40
2023-03-30T10:27:03.716Z,4.60
2023-03-30T10:29:33.365Z,4.70
2023-03-30T10:32:09.519Z,4.50
2023-03-30T10:34:41.587Z,4.50
2023-03-30T10:37:13.638Z,4.60
2023-03-30T10:39:44.272Z,4.30
2023-03-30T10:42:17.730Z,4.20
2023-03-30T10:44:51.621Z,4.00
2023-03-30T10:47:36.987Z,3.80
2023-03-30T10:50:14.995Z,3.80
2023-03-30T10:52:58.955Z,3.70
2023-03-30T10:55:33.836Z,4.00
2023-03-30T10:58:12.339Z,3.90
2023-03-30T11:00:56.989Z,3.90
2023-03-30T11:03:29.786Z,4.00
2023-03-30T11:06:05.213Z,4.10
2023-03-30T11:08:38.487Z,4.10
2023-03-30T11:11:08.672Z,4.10
2023-03-30T11:13:41.397Z,4.20
2023-03-30T11:16:17.550Z,4.40
2023-03-30T11:18:54.659Z,4.40
2023-03-30T11:21:28.192Z,4.70
2023-03-30T11:24:00.086Z,4.80
2023-03-30T11:26:37.420Z,4.90
2023-03-30T11:29:19.174Z,4.70
2023-03-30T11:31:57.446Z,4.30
2023-03-30T11:34:34.778Z,4.10
2023-03-30T11:37:12.272Z,4.10
2023-03-30T11:39:47.226Z,4.00
2023-03-30T11:42:18.836Z,3.80
2023-03-30T11:44:47.335Z,3.70
2023-03-30T11:47:29.397Z,3.60
2023-03-30T11:50:09.519Z,3.70
2023-03-30T11:52:46.237Z,3.80
2023-03-30T11:55:28.286Z,3.70
2023-03-30T11:58:06.907Z,3.60
2023-03-30T12:00:49.685Z,3.50
2023-03-30T12:03:38.283Z,3.40
2023-03-30T12:06:21.880Z,3.50
2023-03-30T12:09:17.497Z,3.70
2023-03-30T12:11:50.836Z,3.90
2023-03-30T12:14:37.672Z,4.00
2023-03-30T12:17:13.309Z,3.90
2023-03-30T12:19:56.053Z,3.80
2023-03-30T12:22:31.532Z,3.80
2023-03-30T12:25:07.919Z,3.90
2023-03-30T12:27:38.814Z,3.60
2023-03-30T12:30:15.879Z,3.40
2023-03-30T12:33:01.017Z,3.50
2023-03-30T12:36:04.238Z,3.50
2023-03-30T12:38:43.592Z,3.50
2023-03-30T12:41:18.559Z,3.30
2023-03-30T12:44:06.554Z,3.20
2023-03-30T12:46:42.127Z,3.20
2023-03-30T12:49:24.667Z,3.00
2023-03-30T12:52:09.718Z,3.00
2023-03-30T12:55:05.208Z,3.00
2023-03-30T12:57:47.392Z,3.10
2023-03-30T13:00:36.408Z,3.20
2023-03-30T13:03:29.550Z,3.10
2023-03-30T13:06:01.223Z,3.20
2023-03-30T13:08:34.405Z,3.20
2023-03-30T13:11:18.634Z,3.30
2023-03-30T13:13:56.739Z,3.20
2023-03-30T13:16:47.166Z,3.20
2023-03-30T13:19:23.359Z,3.30
2023-03-30T13:21:57.659Z,3.30
2023-03-30T13:24:37.018Z,3.20
2023-03-30T13:27:27.368Z,3.00
2023-03-30T13:29:58.004Z,3.00
2023-03-30T13:32:45.012Z,3.10
2023-03-30T13:35:40.721Z,3.20
2023-03-30T13:38:43.494Z,3.10
2023-03-30T13:41:32.605Z,3.10
2023-03-30T13:44:09.152Z,3.10
2023-03-30T13:46:47.216Z,3.30
2023-03-30T13:49:30.348Z,3.40
2023-03-30T13:52:04.073Z,3.20
2023-03-30T13:54:34.682Z,3.10
2023-03-30T13:57:10.581Z,3.30
2023-03-30T13:59:43.009Z,3.40
2023-03-30T14:02:17.016Z,3.60
2023-03-30T14:04:45.870Z,3.20
2023-03-30T14:07:18.686Z,3.20
2023-03-30T14:10:06.432Z,3.00
2023-03-30T14:12:39.698Z,2.80
2023-03-30T14:15:18.162Z,2.70
2023-03-30T14:17:51.092Z,2.50
2023-03-30T14:20:30.280Z,2.40
2023-03-30T14:23:00.904Z,2.50
2023-03-30T14:25:31.098Z,2.50
2023-03-30T14:28:04.293Z,2.60
2023-03-30T14:30:34.485Z,2.70
2023-03-30T14:33:11.143Z,2.90
2023-03-30T14:35:44.359Z,2.90
2023-03-30T14:38:17.749Z,2.90
2023-03-30T14:40:47.929Z,2.90
2023-03-30T14:43:20.466Z,2.70
2023-03-30T14:45:50.084Z,2.70
2023-03-30T14:48:25.042Z,2.90
2023-03-30T14:50:53.496Z,2.70
2023-03-30T14:53:26.433Z,2.60
2023-03-30T14:55:58.106Z,2.60
2023-03-30T14:58:31.357Z,2.60
2023-03-30T15:01:03.655Z,2.60
2023-03-30T15:03:35.310Z,2.40
2023-03-30T15:06:05.888Z,2.30
2023-03-30T15:08:39.702Z,2.30
2023-03-30T15:11:10.973Z,2.30
2023-03-30T15:13:43.671Z,2.20
2023-03-30T15:16:16.534Z,2.20
2023-03-30T15:18:45.487Z,2.20
2023-03-30T15:21:14.927Z,2.10
2023-03-30T15:23:46.096Z,2.00
2023-03-30T15:26:14.666Z,1.90
2023-03-30T15:28:48.096Z,1.70
2023-03-30T15:31:17.379Z,1.70
2023-03-30T15:33:48.164Z,1.70
2023-03-30T15:36:22.821Z,1.60
2023-03-30T15:38:53.323Z,1.60
2023-03-30T15:41:24.304Z,1.60
2023-03-30T15:43:58.968Z,1.60
2023-03-30T15:46:29.359Z,1.60
2023-03-30T15:48:59.524Z,1.70
2023-03-30T15:51:33.223Z,1.70
2023-03-30T15:54:04.269Z,1.70
2023-03-30T15:56:38.186Z,1.60
2023-03-30T15:59:14.603Z,1.60
2023-03-30T16:01:49.130Z,1.60
2023-03-30T16:04:19.270Z,1.50
2023-03-30T16:06:47.896Z,1.40
2023-03-30T16:09:16.718Z,1.30
2023-03-30T16:11:46.685Z,1.30
2023-03-30T16:14:20.661Z,1.20
2023-03-30T16:16:49.591Z,1.20
2023-03-30T16:19:20.227Z,1.10
2023-03-30T16:21:49.387Z,1.10
2023-03-30T16:24:17.564Z,1.20
2023-03-30T16:26:46.864Z,1.20
2023-03-30T16:29:21.947Z,1.20
2023-03-30T16:31:50.253Z,1.10
2023-03-30T16:34:19.513Z,1.10
2023-03-30T16:36:48.346Z,1.10
2023-03-30T16:39:19.103Z,1.00
2023-03-30T16:41:48.372Z,1.00
2023-03-30T16:44:19.600Z,0.90
2023-03-30T16:46:49.138Z,0.90
2023-03-30T16:49:21.767Z,0.90
2023-03-30T16:51:51.450Z,0.90
2023-03-30T16:54:30.499Z,0.80
2023-03-30T16:57:01.200Z,0.80
2023-03-30T16:59:32.776Z,0.70
2023-03-30T17:02:02.584Z,0.70
2023-03-30T17:04:31.030Z,0.70
2023-03-30T17:06:59.208Z,0.70
2023-03-30T17:09:27.811Z,0.60
2023-03-30T17:11:56.112Z,0.60
2023-03-30T17:14:24.496Z,0.50
2023-03-30T17:16:54.505Z,0.60
2023-03-30T17:19:22.747Z,0.50
2023-03-30T17:21:51.027Z,0.60
2023-03-30T17:24:20.508Z,0.50
2023-03-30T17:26:48.676Z,0.50
2023-03-30T17:29:16.895Z,0.50
2023-03-30T17:31:46.269Z,0.50
2023-03-30T17:34:16.269Z,0.50
2023-03-30T17:36:44.604Z,0.50
2023-03-30T17:39:15.716Z,0.50
2023-03-30T17:41:44.029Z,0.50
2023-03-30T17:44:12.246Z,0.50
2023-03-30T17:46:43.053Z,0.40
2023-03-30T17:49:18.311Z,0.40
2023-03-30T17:51:47.194Z,0.40
2023-03-30T17:54:15.744Z,0.40
2023-03-30T17:56:44.053Z,0.40
2023-03-30T17:59:13.295Z,0.40
2023-03-30T18:01:41.590Z,0.30
2023-03-30T18:04:10.197Z,0.30
2023-03-30T18:06:41.017Z,0.30
2023-03-30T18:09:16.850Z,0.30
2023-03-30T18:11:45.421Z,0.30
2023-03-30T18:14:13.720Z,0.30
2023-03-30T18:16:44.032Z,0.30
2023-03-30T18:19:12.789Z,0.20
2023-03-30T18:21:42.675Z,0.20
2023-03-30T18:24:11.013Z,0.20
2023-03-30T18:26:41.299Z,0.20
2023-03-30T18:29:20.370Z,0.20
2023-03-30T18:31:49.734Z,0.20
2023-03-30T18:34:19.600Z,0.20
2023-03-30T18:36:49.289Z,0.20
2023-03-30T18:39:19.770Z,0.20
2023-03-30T18:41:47.979Z,0.20
2023-03-30T18:44:16.233Z,0.20
2023-03-30T18:46:45.456Z,0.20
2023-03-30T18:49:15.422Z,0.20
2023-03-30T18:51:43.686Z,0.20
2023-03-30T18:54:13.344Z,0.20
2023-03-30T18:56:41.513Z,0.20
2023-03-30T18:59:11.076Z,0.20
2023-03-30T19:01:40.274Z,0.20
2023-03-30T19:04:08.446Z,0.20
2023-03-30T19:06:36.687Z,0.10
2023-03-30T19:09:04.953Z,0.10
2023-03-30T19:11:34.636Z,0.10
2023-03-30T19:14:04.494Z,0.10
2023-03-30T19:16:32.952Z,0.20
2023-03-30T19:19:01.676Z,0.10
2023-03-30T19:21:30.021Z,0.10
2023-03-30T19:23:58.575Z,0.20
2023-03-30T19:26:27.457Z,0.20
2023-03-30T19:28:57.037Z,0.10
2023-03-30T19:31:25.627Z,0.10
2023-03-30T19:33:54.394Z,0.10
2023-03-30T19:36:25.213Z,0.10
2023-03-30T19:38:54.813Z,0.10
2023-03-30T19:41:23.190Z,0.10
2023-03-30T19:43:51.376Z,0.10
2023-03-30T19:46:21.150Z,0.10
2023-03-30T19:48:49.548Z,0.10
2023-03-30T19:51:19.079Z,0.10
2023-03-30T19:53:47.723Z,0.10
2023-03-30T19:56:16.540Z,0.10
2023-03-30T19:58:44.702Z,0.10
2023-03-30T20:01:13.571Z,0.10
2023-03-30T20:03:43.267Z,0.10
2023-03-30T20:06:12.482Z,0.10
2023-03-30T20:08:41.552Z,0.10
2023-03-30T20:11:10.517Z,0.10
2023-03-30T20:13:45.477Z,0.10
2023-03-30T20:16:20.520Z,0.10
2023-03-30T20:18:52.346Z,0.10
2023-03-30T20:21:21.329Z,0.10
2023-03-30T20:23:50.642Z,0.10
2023-03-30T20:26:19.497Z,0.10
2023-03-30T20:28:48.425Z,0.10
2023-03-30T20:31:16.915Z,0.10
2023-03-30T20:33:45.783Z,0.00
2023-03-30T20:36:15.833Z,0.00
2023-03-30T20:38:45.969Z,0.10
2023-03-30T20:41:15.547Z,0.10
2023-03-30T20:43:56.928Z,0.10
2023-03-30T20:46:35.711Z,0.10
2023-03-30T20:49:03.895Z,0.00
2023-03-30T20:51:34.031Z,0.10
2023-03-30T20:54:02.893Z,0.10
2023-03-30T20:56:31.178Z,0.10
2023-03-30T20:58:59.624Z,0.10
2023-03-30T21:01:29.793Z,0.10
2023-03-30T21:03:59.599Z,0.10
2023-03-30T21:06:30.496Z,0.10
2023-03-30T21:09:01.530Z,0.10
2023-03-30T21:11:32.374Z,0.10
2023-03-30T21:14:01.568Z,0.10
2023-03-30T21:16:30.039Z,0.10
2023-03-30T21:18:58.444Z,0.00
2023-03-30T21:21:27.137Z,0.00
2023-03-30T21:23:57.444Z,0.00
2023-03-30T21:26:28.939Z,0.00
2023-03-30T21:28:57.884Z,0.00
2023-03-30T21:31:26.264Z,0.00
2023-03-30T21:33:54.918Z,0.00
2023-03-30T21:36:23.595Z,0.00
2023-03-30T21:38:51.846Z,0.00
2023-03-30T21:41:24.325Z,0.10
2023-03-30T21:43:54.731Z,0.10
2023-03-30T21:46:24.758Z,0.10
2023-03-30T21:48:54.294Z,0.10
2023-03-30T21:51:25.755Z,0.10
2023-03-30T21:53:55.521Z,0.10
2023-03-30T21:56:26.144Z,0.10
2023-03-30T21:58:55.712Z,0.10
2023-03-30T22:01:24.959Z,0.10
2023-03-30T22:03:53.902Z,0.10
2023-03-30T22:06:23.171Z,0.10
2023-03-30T22:08:51.890Z,0.10
2023-03-30T22:11:21.887Z,0.10
2023-03-30T22:13:50.778Z,0.10
2023-03-30T22:16:24.179Z,0.10
2023-03-30T22:18:53.182Z,0.10
2023-03-30T22:21:24.048Z,0.10
2023-03-30T22:23:54.932Z,0.10
2023-03-30T22:26:23.891Z,0.10
2023-03-30T22:28:52.085Z,0.10
2023-03-30T22:31:22.228Z,0.10
2023-03-30T22:33:50.828Z,0.10
2023-03-30T22:36:20.506Z,0.10
2023-03-30T22:38:49.599Z,0.10
2023-03-30T22:41:23.772Z,0.10
2023-03-30T22:43:53.281Z,0.10
2023-03-30T22:46:23.635Z,0.10
2023-03-30T22:48:52.588Z,0.10
2023-03-30T22:51:26.398Z,0.10
2023-03-30T22:53:57.747Z,0.10
2023-03-30T22:56:26.726Z,0.10
2023-03-30T22:58:55.012Z,0.10
2023-03-30T23:01:25.133Z,0.10
2023-03-30T23:03:53.688Z,0.10
2023-03-30T23:06:21.872Z,0.10
2023-03-30T23:08:52.596Z,0.10
2023-03-30T23:11:21.896Z,0.10
2023-03-30T23:13:52.228Z,0.10
2023-03-30T23:16:20.620Z,0.10
2023-03-30T23:18:50.674Z,0.10
2023-03-30T23:21:21.875Z,0.10
2023-03-30T23:23:50.856Z,0.10
2023-03-30T23:26:19.666Z,0.10
2023-03-30T23:28:47.871Z,0.10
2023-03-30T23:31:18.959Z,0.10
2023-03-30T23:33:47.552Z,0.10
2023-03-30T23:36:19.329Z,0.10
2023-03-30T23:38:48.725Z,0.10
2023-03-30T23:41:18.785Z,0.10
2023-03-30T23:43:47.657Z,0.10
2023-03-30T23:46:16.423Z,0.10
2023-03-30T23:48:44.862Z,0.10
2023-03-30T23:51:13.341Z,0.10
2023-03-30T23:53:42.931Z,0.00
2023-03-30T23:56:13.373Z,0.00
2023-03-30T23:58:42.315Z,0.00
